createdAt,value
2018-03-26T00:00:49.360Z,76.25
2018-03-26T00:03:18.834Z,75.93
2018-03-26T00:05:47.260Z,75.60
2018-03-26T00:08:15.658Z,75.43
2018-03-26T00:10:45.180Z,75.70
2018-03-26T00:13:13.733Z,77.15
2018-03-26T00:15:42.510Z,77.25
2018-03-26T00:18:12.731Z,76.85
2018-03-26T00:20:41.632Z,76.56
2018-03-26T00:23:10.069Z,76.53
2018-03-26T00:25:40.179Z,76.32
2018-03-26T00:28:08.961Z,75.98
2018-03-26T00:30:37.534Z,75.56
2018-03-26T00:33:06.217Z,74.81
2018-03-26T00:35:34.742Z,73.96
2018-03-26T00:38:03.534Z,73.57
2018-03-26T00:40:32.795Z,73.55
2018-03-26T00:43:01.407Z,73.21
2018-03-26T00:45:30.025Z,73.52
2018-03-26T00:47:59.890Z,73.59
2018-03-26T00:50:28.472Z,73.71
2018-03-26T00:52:57.001Z,73.79
2018-03-26T00:55:25.986Z,73.66
2018-03-26T00:57:54.514Z,73.42
2018-03-26T01:00:23.106Z,73.56
2018-03-26T01:02:52.227Z,73.40
2018-03-26T01:05:20.726Z,73.33
2018-03-26T01:07:49.155Z,73.22
2018-03-26T01:10:17.750Z,72.96
2018-03-26T01:12:46.772Z,73.11
2018-03-26T01:15:15.213Z,73.33
2018-03-26T01:17:43.638Z,73.34
2018-03-26T01:20:12.505Z,73.82
2018-03-26T01:22:40.872Z,74.05
2018-03-26T01:25:09.875Z,74.18
2018-03-26T01:27:38.253Z,74.13
2018-03-26T01:30:06.640Z,74.26
2018-03-26T01:32:35.666Z,74.04
2018-03-26T01:35:04.082Z,74.20
2018-03-26T01:37:32.625Z,74.12
2018-03-26T01:40:01.205Z,74.02
2018-03-26T01:42:29.757Z,73.94
2018-03-26T01:44:58.214Z,74.19
2018-03-26T01:47:27.513Z,74.25
2018-03-26T01:49:55.981Z,74.19
2018-03-26T01:52:24.477Z,74.03
2018-03-26T01:54:53.313Z,73.91
2018-03-26T01:57:22.667Z,74.03
2018-03-26T01:59:52.528Z,73.85
2018-03-26T02:02:20.993Z,73.70
2018-03-26T02:04:49.478Z,73.43
2018-03-26T02:07:23.652Z,73.60
2018-03-26T02:09:52.544Z,73.85
2018-03-26T02:12:21.990Z,74.55
2018-03-26T02:14:50.473Z,74.62
2018-03-26T02:17:18.852Z,74.64
2018-03-26T02:19:47.378Z,74.83
2018-03-26T02:22:15.756Z,75.06
2018-03-26T02:24:44.238Z,75.37
2018-03-26T02:27:12.940Z,75.65
2018-03-26T02:29:41.859Z,75.81
2018-03-26T02:32:10.312Z,76.00
2018-03-26T02:34:38.724Z,75.99
2018-03-26T02:37:08.645Z,75.94
2018-03-26T02:39:37.840Z,75.86
2018-03-26T02:42:09.419Z,75.82
2018-03-26T02:44:39.358Z,75.94
2018-03-26T02:47:07.887Z,76.20
2018-03-26T02:49:36.330Z,76.15
2018-03-26T02:52:04.835Z,76.17
2018-03-26T02:54:33.299Z,76.10
2018-03-26T02:57:01.914Z,76.00
2018-03-26T02:59:31.135Z,76.05
2018-03-26T03:01:59.904Z,76.05
2018-03-26T03:04:28.504Z,76.17
2018-03-26T03:06:58.575Z,76.51
2018-03-26T03:09:27.258Z,76.70
2018-03-26T03:11:55.949Z,76.77
2018-03-26T03:14:24.866Z,76.79
2018-03-26T03:16:53.523Z,76.74
2018-03-26T03:19:23.022Z,76.71
2018-03-26T03:21:53.148Z,76.78
2018-03-26T03:24:21.547Z,76.89
2018-03-26T03:26:50.150Z,77.02
2018-03-26T03:29:20.351Z,77.19
2018-03-26T03:31:50.780Z,77.18
2018-03-26T03:34:19.193Z,77.31
2018-03-26T03:36:48.354Z,77.12
2018-03-26T03:39:16.857Z,76.49
2018-03-26T03:41:45.298Z,76.16
2018-03-26T03:44:13.712Z,76.23
2018-03-26T03:46:42.078Z,76.28
2018-03-26T03:49:10.492Z,76.35
2018-03-26T03:51:39.022Z,76.57
2018-03-26T03:54:07.573Z,76.56
2018-03-26T03:56:36.103Z,76.58
2018-03-26T03:59:05.216Z,76.29
2018-03-26T04:01:33.802Z,76.34
2018-03-26T04:04:02.247Z,76.84
2018-03-26T04:06:31.048Z,76.93
2018-03-26T04:08:59.519Z,76.87
2018-03-26T04:11:30.003Z,77.14
2018-03-26T04:13:58.735Z,77.46
2018-03-26T04:16:27.230Z,77.11
2018-03-26T04:18:55.675Z,76.80
2018-03-26T04:21:24.479Z,76.92
2018-03-26T04:23:53.561Z,76.85
2018-03-26T04:26:22.132Z,76.95
2018-03-26T04:28:51.172Z,76.98
2018-03-26T04:31:19.676Z,77.20
2018-03-26T04:33:48.069Z,77.10
2018-03-26T04:36:16.540Z,77.22
2018-03-26T04:38:44.934Z,77.39
2018-03-26T04:41:13.598Z,77.50
2018-03-26T04:43:43.110Z,77.55
2018-03-26T04:46:12.364Z,77.65
2018-03-26T04:48:40.890Z,77.76
2018-03-26T04:51:15.782Z,77.69
2018-03-26T04:53:44.143Z,77.67
2018-03-26T04:56:13.671Z,78.15
2018-03-26T04:58:42.286Z,78.54
2018-03-26T05:01:10.696Z,78.60
2018-03-26T05:03:39.084Z,78.67
2018-03-26T05:06:07.474Z,78.61
2018-03-26T05:08:36.013Z,79.57
2018-03-26T05:11:04.485Z,79.75
2018-03-26T05:13:33.250Z,79.78
2018-03-26T05:16:01.870Z,79.98
2018-03-26T05:18:30.249Z,79.81
2018-03-26T05:20:58.719Z,79.76
2018-03-26T05:23:27.172Z,80.69
2018-03-26T05:25:55.856Z,80.76
2018-03-26T05:28:24.544Z,80.90
2018-03-26T05:30:54.356Z,81.01
2018-03-26T05:33:23.830Z,80.98
2018-03-26T05:35:52.910Z,80.74
2018-03-26T05:38:21.360Z,80.30
2018-03-26T05:40:49.794Z,80.19
2018-03-26T05:43:18.455Z,80.11
2018-03-26T05:45:47.830Z,79.97
2018-03-26T05:48:16.366Z,80.20
2018-03-26T05:50:45.127Z,80.26
2018-03-26T05:53:14.584Z,80.20
2018-03-26T05:55:42.934Z,79.80
2018-03-26T05:58:11.583Z,79.82
2018-03-26T06:00:40.199Z,79.18
2018-03-26T06:03:09.174Z,78.63
2018-03-26T06:05:42.520Z,78.35
2018-03-26T06:08:11.314Z,78.34
2018-03-26T06:10:40.373Z,78.53
2018-03-26T06:13:09.017Z,78.59
2018-03-26T06:15:37.508Z,78.45
2018-03-26T06:18:06.945Z,78.25
2018-03-26T06:20:36.372Z,78.28
2018-03-26T06:23:04.961Z,78.12
2018-03-26T06:25:33.531Z,78.02
2018-03-26T06:28:02.129Z,78.13
2018-03-26T06:30:30.943Z,78.08
2018-03-26T06:33:00.009Z,78.00
2018-03-26T06:35:29.200Z,77.96
2018-03-26T06:41:03.892Z,76.38
2018-03-26T06:43:32.428Z,76.80
2018-03-26T06:46:01.231Z,76.53
2018-03-26T06:48:36.979Z,77.48
2018-03-26T06:51:05.566Z,78.04
2018-03-26T06:53:34.354Z,78.68
2018-03-26T06:56:03.484Z,78.89
2018-03-26T06:58:31.864Z,78.08
2018-03-26T07:01:00.373Z,77.81
2018-03-26T07:03:29.274Z,77.51
2018-03-26T07:05:57.940Z,78.45
2018-03-26T07:08:26.434Z,78.23
2018-03-26T07:10:55.363Z,78.14
2018-03-26T07:13:23.988Z,78.03
2018-03-26T07:15:53.055Z,77.67
2018-03-26T07:18:21.880Z,77.17
2018-03-26T07:20:50.387Z,77.17
2018-03-26T07:23:18.774Z,77.21
2018-03-26T07:25:47.674Z,77.00
2018-03-26T07:28:16.274Z,76.67
2018-03-26T07:30:44.645Z,76.62
2018-03-26T07:33:13.204Z,76.36
2018-03-26T07:35:41.688Z,75.78
2018-03-26T07:38:11.250Z,75.60
2018-03-26T07:40:39.753Z,75.63
2018-03-26T07:43:08.142Z,75.84
2018-03-26T07:45:36.571Z,75.88
2018-03-26T07:48:05.407Z,76.19
2018-03-26T07:50:35.985Z,76.60
2018-03-26T07:53:04.782Z,76.58
2018-03-26T07:55:33.386Z,75.91
2018-03-26T07:58:01.818Z,75.50
2018-03-26T08:00:30.195Z,75.66
2018-03-26T08:02:59.420Z,75.14
2018-03-26T08:05:29.424Z,74.99
2018-03-26T08:07:58.112Z,75.10
2018-03-26T08:10:27.256Z,75.06
2018-03-26T08:12:55.765Z,74.82
2018-03-26T08:15:26.318Z,74.75
2018-03-26T08:17:56.392Z,74.53
2018-03-26T08:20:24.885Z,74.82
2018-03-26T08:22:53.552Z,75.31
2018-03-26T08:25:22.931Z,75.37
2018-03-26T08:27:51.349Z,75.64
2018-03-26T08:30:19.764Z,76.41
2018-03-26T08:32:48.200Z,76.05
2018-03-26T08:35:16.616Z,75.43
2018-03-26T08:37:45.075Z,74.55
2018-03-26T08:40:14.493Z,74.57
2018-03-26T08:42:42.859Z,74.58
2018-03-26T08:45:11.223Z,74.23
2018-03-26T08:47:40.535Z,74.14
2018-03-26T08:50:09.031Z,74.34
2018-03-26T08:52:37.417Z,74.13
2018-03-26T08:55:05.909Z,74.41
2018-03-26T08:57:34.364Z,74.08
2018-03-26T09:00:05.117Z,74.00
2018-03-26T09:02:33.902Z,74.09
2018-03-26T09:05:02.359Z,74.10
2018-03-26T09:07:31.154Z,74.30
2018-03-26T09:09:59.820Z,74.13
2018-03-26T09:12:28.246Z,73.91
2018-03-26T09:14:58.022Z,73.83
2018-03-26T09:17:27.235Z,73.95
2018-03-26T09:19:55.991Z,73.61
2018-03-26T09:22:24.422Z,72.81
2018-03-26T09:24:52.869Z,71.99
2018-03-26T09:27:21.337Z,71.30
2018-03-26T09:29:49.709Z,70.62
2018-03-26T09:32:18.398Z,70.21
2018-03-26T09:34:46.780Z,69.94
2018-03-26T09:37:15.247Z,69.96
2018-03-26T09:39:44.485Z,70.25
2018-03-26T09:42:12.828Z,69.32
2018-03-26T09:44:42.291Z,68.52
2018-03-26T09:47:10.652Z,67.94
2018-03-26T09:49:40.440Z,67.56
2018-03-26T09:52:09.020Z,66.81
2018-03-26T09:54:37.903Z,65.78
2018-03-26T09:57:06.508Z,65.01
2018-03-26T09:59:35.071Z,64.33
2018-03-26T10:02:03.803Z,63.36
2018-03-26T10:04:32.610Z,63.97
2018-03-26T10:07:01.056Z,63.28
2018-03-26T10:09:29.986Z,62.66
2018-03-26T10:11:59.244Z,62.72
2018-03-26T10:14:28.227Z,63.11
2018-03-26T10:16:56.821Z,62.76
2018-03-26T10:19:25.719Z,63.76
2018-03-26T10:21:54.694Z,62.05
2018-03-26T10:24:25.844Z,58.73
2018-03-26T10:26:54.644Z,55.07
2018-03-26T10:29:23.436Z,54.30
2018-03-26T10:31:52.616Z,51.42
2018-03-26T10:34:22.434Z,51.41
2018-03-26T10:36:51.335Z,51.53
2018-03-26T10:39:20.513Z,53.49
2018-03-26T10:41:48.911Z,52.42
2018-03-26T10:44:18.088Z,50.92
2018-03-26T10:46:49.444Z,51.93
2018-03-26T10:49:20.115Z,50.92
2018-03-26T10:51:51.850Z,51.97
2018-03-26T10:54:21.659Z,53.17
2018-03-26T10:56:50.122Z,56.23
2018-03-26T10:59:18.589Z,55.98
2018-03-26T11:01:50.306Z,55.92
2018-03-26T11:04:18.854Z,55.50
2018-03-26T11:06:53.001Z,53.95
2018-03-26T11:09:24.307Z,52.60
2018-03-26T11:11:53.952Z,52.23
2018-03-26T11:14:25.010Z,51.86
2018-03-26T11:16:54.864Z,51.69
2018-03-26T11:19:24.621Z,51.78
2018-03-26T11:21:53.683Z,52.05
2018-03-26T11:24:25.605Z,52.53
2018-03-26T11:26:57.326Z,53.91
2018-03-26T11:29:27.367Z,53.15
2018-03-26T11:31:56.837Z,52.73
2018-03-26T11:34:33.844Z,50.38
2018-03-26T11:37:02.314Z,47.96
2018-03-26T11:39:31.455Z,47.92
2018-03-26T11:42:00.268Z,47.99
2018-03-26T11:44:30.638Z,48.00
2018-03-26T11:47:02.776Z,48.93
2018-03-26T11:49:32.837Z,50.31
2018-03-26T11:52:01.649Z,51.04
2018-03-26T11:54:31.766Z,52.60
2018-03-26T11:57:00.561Z,53.39
2018-03-26T11:59:29.398Z,54.44
2018-03-26T12:01:59.461Z,54.97
2018-03-26T12:04:28.971Z,55.07
2018-03-26T12:06:57.606Z,55.49
2018-03-26T12:09:26.769Z,55.95
2018-03-26T12:11:55.805Z,55.40
2018-03-26T12:14:25.169Z,55.33
2018-03-26T12:16:54.923Z,55.63
2018-03-26T12:19:25.397Z,55.94
2018-03-26T12:21:54.335Z,55.99
2018-03-26T12:24:34.766Z,56.05
2018-03-26T12:27:04.223Z,56.99
2018-03-26T12:29:45.502Z,57.33
2018-03-26T12:32:17.076Z,57.94
2018-03-26T12:34:57.990Z,58.46
2018-03-26T12:37:26.842Z,58.61
2018-03-26T12:39:56.284Z,59.00
2018-03-26T12:42:27.678Z,59.34
2018-03-26T12:45:07.815Z,59.51
2018-03-26T12:47:38.047Z,59.17
2018-03-26T12:50:07.720Z,59.08
2018-03-26T12:52:55.117Z,58.97
2018-03-26T12:55:23.600Z,58.60
2018-03-26T13:01:06.642Z,59.00
2018-03-26T13:03:36.648Z,59.64
2018-03-26T13:06:05.124Z,59.88
2018-03-26T13:08:33.509Z,60.32
2018-03-26T13:11:02.148Z,59.75
2018-03-26T13:13:30.495Z,60.32
2018-03-26T13:15:58.902Z,60.62
2018-03-26T13:18:28.862Z,60.66
2018-03-26T13:20:57.280Z,61.51
2018-03-26T13:23:25.935Z,60.53
2018-03-26T13:25:55.397Z,61.23
2018-03-26T13:28:24.690Z,61.85
2018-03-26T13:30:53.367Z,61.67
2018-03-26T13:33:22.214Z,61.99
2018-03-26T13:35:50.742Z,62.04
2018-03-26T13:38:19.124Z,62.14
2018-03-26T13:40:48.301Z,62.16
2018-03-26T13:43:17.131Z,61.17
2018-03-26T13:45:45.449Z,60.73
2018-03-26T13:48:13.829Z,60.80
2018-03-26T13:50:42.234Z,60.96
2018-03-26T13:53:10.632Z,60.76
2018-03-26T13:55:41.588Z,60.64
2018-03-26T13:58:09.995Z,60.29
2018-03-26T14:00:38.446Z,60.02
2018-03-26T14:03:08.632Z,59.89
2018-03-26T14:05:38.429Z,59.82
2018-03-26T14:08:06.896Z,59.58
2018-03-26T14:10:47.263Z,58.78
2018-03-26T14:16:28.163Z,58.72
2018-03-26T14:18:57.190Z,59.34
2018-03-26T14:21:27.078Z,58.98
2018-03-26T14:23:56.468Z,59.07
2018-03-26T14:26:25.167Z,58.84
2018-03-26T14:28:54.154Z,58.34
2018-03-26T14:31:23.869Z,58.27
2018-03-26T14:33:52.292Z,58.44
2018-03-26T14:36:20.648Z,57.72
2018-03-26T14:38:49.025Z,57.58
2018-03-26T14:41:17.465Z,56.62
2018-03-26T14:43:46.227Z,56.90
2018-03-26T14:46:14.677Z,57.25
2018-03-26T14:48:43.123Z,58.05
2018-03-26T14:51:11.645Z,58.38
2018-03-26T14:53:40.279Z,58.27
2018-03-26T14:56:08.601Z,58.53
2018-03-26T14:58:37.000Z,58.54
2018-03-26T15:01:05.397Z,58.64
2018-03-26T15:03:33.825Z,58.57
2018-03-26T15:06:02.197Z,59.18
2018-03-26T15:08:31.440Z,59.40
2018-03-26T15:11:00.077Z,60.11
2018-03-26T15:13:28.644Z,61.17
2018-03-26T15:15:57.947Z,61.89
2018-03-26T15:18:27.292Z,61.45
2018-03-26T15:20:56.246Z,62.00
2018-03-26T15:23:25.244Z,61.26
2018-03-26T15:25:54.328Z,60.85
2018-03-26T15:28:23.933Z,60.11
2018-03-26T15:30:54.382Z,59.20
2018-03-26T15:33:22.847Z,58.90
2018-03-26T15:35:52.136Z,58.75
2018-03-26T15:38:20.498Z,57.97
2018-03-26T15:40:48.874Z,57.98
2018-03-26T15:43:17.337Z,57.75
2018-03-26T15:45:47.278Z,57.23
2018-03-26T15:48:15.661Z,57.49
2018-03-26T15:50:44.033Z,57.32
2018-03-26T15:53:13.282Z,56.87
2018-03-26T15:55:41.799Z,56.79
2018-03-26T15:58:10.186Z,57.27
2018-03-26T16:00:38.866Z,57.42
2018-03-26T16:03:12.944Z,57.04
2018-03-26T16:05:41.697Z,56.79
2018-03-26T16:08:10.350Z,57.11
2018-03-26T16:10:39.402Z,56.89
2018-03-26T16:13:07.993Z,56.93
2018-03-26T16:15:40.965Z,57.20
2018-03-26T16:18:10.760Z,57.18
2018-03-26T16:20:39.983Z,57.28
2018-03-26T16:23:08.782Z,58.24
2018-03-26T16:25:38.852Z,59.41
2018-03-26T16:28:07.849Z,59.98
2018-03-26T16:30:36.710Z,60.00
2018-03-26T16:33:05.914Z,59.76
2018-03-26T16:35:35.213Z,59.31
2018-03-26T16:38:05.337Z,59.00
2018-03-26T16:40:34.319Z,58.77
2018-03-26T16:43:05.564Z,58.96
2018-03-26T16:45:35.456Z,58.94
2018-03-26T16:48:04.472Z,58.74
2018-03-26T16:50:35.929Z,58.75
2018-03-26T16:53:05.012Z,58.74
2018-03-26T16:55:34.092Z,58.97
2018-03-26T16:58:03.616Z,59.32
2018-03-26T17:00:32.919Z,59.67
2018-03-26T17:03:02.336Z,60.11
2018-03-26T17:05:31.107Z,60.65
2018-03-26T17:08:00.390Z,60.95
2018-03-26T17:10:29.359Z,60.87
2018-03-26T17:12:58.213Z,60.86
2018-03-26T17:15:27.904Z,61.14
2018-03-26T17:17:57.146Z,61.38
2018-03-26T17:20:25.954Z,61.25
2018-03-26T17:22:56.597Z,59.91
2018-03-26T17:25:25.696Z,59.90
2018-03-26T17:27:55.086Z,60.16
2018-03-26T17:30:24.384Z,60.12
2018-03-26T17:32:53.293Z,60.84
2018-03-26T17:35:21.966Z,61.53
2018-03-26T17:37:50.816Z,61.50
2018-03-26T17:40:19.817Z,61.77
2018-03-26T17:42:48.377Z,62.03
2018-03-26T17:45:16.923Z,62.34
2018-03-26T17:47:45.786Z,62.84
2018-03-26T17:50:14.580Z,63.10
2018-03-26T17:52:43.320Z,63.40
2018-03-26T17:55:12.497Z,63.81
2018-03-26T17:57:41.160Z,64.33
2018-03-26T18:00:13.836Z,64.59
2018-03-26T18:02:45.367Z,64.92
2018-03-26T18:05:16.017Z,65.21
2018-03-26T18:07:44.957Z,65.50
2018-03-26T18:10:14.974Z,65.65
2018-03-26T18:12:43.349Z,66.21
2018-03-26T18:15:12.706Z,66.51
2018-03-26T18:17:41.197Z,66.82
2018-03-26T18:20:11.522Z,66.98
2018-03-26T18:22:40.751Z,67.20
2018-03-26T18:25:09.636Z,67.65
2018-03-26T18:27:38.598Z,67.70
2018-03-26T18:30:07.047Z,68.07
2018-03-26T18:32:35.877Z,68.37
2018-03-26T18:35:05.654Z,68.57
2018-03-26T18:37:34.816Z,68.98
2018-03-26T18:40:03.588Z,69.17
2018-03-26T18:42:32.826Z,69.28
2018-03-26T18:45:03.094Z,69.26
2018-03-26T18:47:32.354Z,69.38
2018-03-26T18:50:01.189Z,69.37
2018-03-26T18:52:30.381Z,69.51
2018-03-26T18:54:59.930Z,69.56
2018-03-26T18:57:30.787Z,69.75
2018-03-26T18:59:59.540Z,69.92
2018-03-26T19:02:28.988Z,70.01
2018-03-26T19:04:58.548Z,70.10
2018-03-26T19:07:27.301Z,70.22
2018-03-26T19:09:56.540Z,70.45
2018-03-26T19:12:25.340Z,70.37
2018-03-26T19:14:54.316Z,70.36
2018-03-26T19:17:23.518Z,70.37
2018-03-26T19:19:52.062Z,70.39
2018-03-26T19:22:21.807Z,70.30
2018-03-26T19:24:50.561Z,70.43
2018-03-26T19:27:19.113Z,70.62
2018-03-26T19:29:49.102Z,71.07
2018-03-26T19:32:17.517Z,71.22
2018-03-26T19:34:46.329Z,71.33
2018-03-26T19:37:14.818Z,71.66
2018-03-26T19:39:43.339Z,71.83
2018-03-26T19:42:12.068Z,71.89
2018-03-26T19:44:40.966Z,71.98
2018-03-26T19:47:09.751Z,72.17
2018-03-26T19:49:38.999Z,72.31
2018-03-26T19:52:08.341Z,72.03
2018-03-26T19:54:37.204Z,71.93
2018-03-26T19:57:07.792Z,71.78
2018-03-26T19:59:36.466Z,71.68
2018-03-26T20:02:05.639Z,71.46
2018-03-26T20:04:37.374Z,71.34
2018-03-26T20:07:06.766Z,71.23
2018-03-26T20:09:35.829Z,71.23
2018-03-26T20:12:05.564Z,71.29
2018-03-26T20:14:35.144Z,70.87
2018-03-26T20:17:05.007Z,71.07
2018-03-26T20:19:35.008Z,70.93
2018-03-26T20:22:03.849Z,71.00
2018-03-26T20:24:32.570Z,70.93
2018-03-26T20:27:01.478Z,70.90
2018-03-26T20:29:30.369Z,70.73
2018-03-26T20:32:00.652Z,70.64
2018-03-26T20:34:30.096Z,70.57
2018-03-26T20:36:58.675Z,70.46
2018-03-26T20:39:27.988Z,70.63
2018-03-26T20:41:58.253Z,71.08
2018-03-26T20:44:27.159Z,71.17
2018-03-26T20:46:56.048Z,71.26
2018-03-26T20:49:25.517Z,71.42
2018-03-26T20:51:54.542Z,71.67
2018-03-26T20:54:23.342Z,72.02
2018-03-26T20:56:53.702Z,72.26
2018-03-26T20:59:22.247Z,72.40
2018-03-26T21:01:50.722Z,72.62
2018-03-26T21:04:19.239Z,72.81
2018-03-26T21:06:48.085Z,73.09
2018-03-26T21:09:16.828Z,73.32
2018-03-26T21:11:45.500Z,73.46
2018-03-26T21:14:13.957Z,73.71
2018-03-26T21:16:43.359Z,73.88
2018-03-26T21:19:13.023Z,73.94
2018-03-26T21:21:41.677Z,73.81
2018-03-26T21:24:10.137Z,73.60
2018-03-26T21:26:39.005Z,73.74
2018-03-26T21:29:07.582Z,73.60
2018-03-26T21:31:35.936Z,73.39
2018-03-26T21:34:04.440Z,73.35
2018-03-26T21:36:32.861Z,73.51
2018-03-26T21:39:01.266Z,73.62
2018-03-26T21:41:29.876Z,73.66
2018-03-26T21:43:59.757Z,73.67
2018-03-26T21:46:28.648Z,73.77
2018-03-26T21:48:57.664Z,73.95
2018-03-26T21:51:27.151Z,73.85
2018-03-26T21:53:56.829Z,74.35
2018-03-26T21:56:27.106Z,74.58
2018-03-26T21:58:56.286Z,74.80
2018-03-26T22:01:25.177Z,74.97
2018-03-26T22:03:54.193Z,75.12
2018-03-26T22:06:23.209Z,74.86
2018-03-26T22:08:51.971Z,74.74
2018-03-26T22:11:20.526Z,74.53
2018-03-26T22:13:49.388Z,74.53
2018-03-26T22:16:18.174Z,74.51
2018-03-26T22:18:46.824Z,74.56
2018-03-26T22:21:15.465Z,74.65
2018-03-26T22:23:44.452Z,74.65
2018-03-26T22:26:13.021Z,75.05
2018-03-26T22:28:41.574Z,74.94
2018-03-26T22:31:09.939Z,74.87
2018-03-26T22:33:38.395Z,74.72
2018-03-26T22:36:06.866Z,74.73
2018-03-26T22:38:35.457Z,74.85
2018-03-26T22:41:04.172Z,74.67
2018-03-26T22:43:32.783Z,74.75
2018-03-26T22:46:01.842Z,74.81
2018-03-26T22:48:30.599Z,74.95
2018-03-26T22:50:59.034Z,75.11
2018-03-26T22:53:27.641Z,75.27
2018-03-26T22:55:56.392Z,75.35
2018-03-26T22:58:24.979Z,75.37
2018-03-26T23:00:53.425Z,75.53
2018-03-26T23:03:21.983Z,75.74
2018-03-26T23:05:50.319Z,75.84
2018-03-26T23:08:18.678Z,75.59
2018-03-26T23:10:47.466Z,75.50
2018-03-26T23:13:15.875Z,75.60
2018-03-26T23:15:44.428Z,75.91
2018-03-26T23:18:13.297Z,76.30
2018-03-26T23:20:42.017Z,76.56
2018-03-26T23:23:10.376Z,76.68
2018-03-26T23:25:39.740Z,76.71
2018-03-26T23:28:08.071Z,76.54
2018-03-26T23:30:36.470Z,76.41
2018-03-26T23:33:06.268Z,76.14
2018-03-26T23:35:34.615Z,76.82
2018-03-26T23:38:03.383Z,76.83
2018-03-26T23:40:32.498Z,76.03
2018-03-26T23:43:00.873Z,75.60
2018-03-26T23:45:29.455Z,75.22
2018-03-26T23:47:58.818Z,75.33
2018-03-26T23:50:27.275Z,75.66
2018-03-26T23:52:55.694Z,76.08
2018-03-26T23:55:24.511Z,76.21
2018-03-26T23:57:53.103Z,76.38
